IGO600 VOGO-VOAT
Flight info
| Callsign | IGO600 |
|---|---|
| Flight time | 0h 46m |
| Altitude | 16000 |
| Route | PABLU DCT KADMI W15 KANTI DCT DOLPI DCT 12N073E DCT AT |
| Aircraft | AT76/M-SDFGIRY/S |
Departure
| Time | 2026-04-28 17:23 |
|---|---|
| Airport | Goa Dabolim International Airport (VOGO) |
Arrival
| Time | 2026-04-28 18:10 |
|---|---|
| Airport | Agatti Airport (VOAT) |
| Time | Latitude | Longitude | Altitude | Speed | Heading |
|---|---|---|---|---|---|
| 2026-04-28 17:14 | 15.38365 | 73.83937 | 179 ft | 0 kts | 304° |
| 2026-04-28 17:15 | 15.38367 | 73.83934 | 179 ft | 4 kts | 303° |
| 2026-04-28 17:16 | 15.38375 | 73.83914 | 178 ft | 7 kts | 286° |
| 2026-04-28 17:16 | 15.38373 | 73.83892 | 178 ft | 7 kts | 266° |
| 2026-04-28 17:16 | 15.38370 | 73.83866 | 177 ft | 8 kts | 259° |
| 2026-04-28 17:16 | 15.38361 | 73.83838 | 176 ft | 9 kts | 242° |
| 2026-04-28 17:17 | 15.38337 | 73.83822 | 175 ft | 8 kts | 194° |
| 2026-04-28 17:17 | 15.38300 | 73.83825 | 175 ft | 17 kts | 171° |
| 2026-04-28 17:17 | 15.38242 | 73.83838 | 174 ft | 16 kts | 168° |
| 2026-04-28 17:17 | 15.38199 | 73.83860 | 173 ft | 8 kts | 121° |
| 2026-04-28 17:18 | 15.38197 | 73.83888 | 174 ft | 7 kts | 88° |
| 2026-04-28 17:18 | 15.38201 | 73.83910 | 175 ft | 6 kts | 77° |
| 2026-04-28 17:18 | 15.38207 | 73.83929 | 176 ft | 6 kts | 72° |
| 2026-04-28 17:18 | 15.38212 | 73.83948 | 177 ft | 6 kts | 75° |
| 2026-04-28 17:19 | 15.38217 | 73.83970 | 177 ft | 7 kts | 78° |
| 2026-04-28 17:19 | 15.38225 | 73.84013 | 179 ft | 19 kts | 77° |
| 2026-04-28 17:19 | 15.38242 | 73.84102 | 182 ft | 31 kts | 81° |
| 2026-04-28 17:19 | 15.38264 | 73.84226 | 195 ft | 36 kts | 78° |
| 2026-04-28 17:20 | 15.38287 | 73.84343 | 192 ft | 31 kts | 79° |
| 2026-04-28 17:20 | 15.38300 | 73.84411 | 194 ft | 27 kts | 79° |
| 2026-04-28 17:20 | 15.38323 | 73.84527 | 202 ft | 22 kts | 79° |
| 2026-04-28 17:20 | 15.38340 | 73.84611 | 206 ft | 31 kts | 70° |
| 2026-04-28 17:21 | 15.38408 | 73.84709 | 207 ft | 31 kts | 78° |
| 2026-04-28 17:21 | 15.38369 | 73.84758 | 211 ft | 11 kts | 187° |
| 2026-04-28 17:21 | 15.38350 | 73.84729 | 210 ft | 11 kts | 265° |
| 2026-04-28 17:22 | 15.38348 | 73.84648 | 212 ft | 12 kts | 259° |
| 2026-04-28 17:22 | 15.38337 | 73.84597 | 209 ft | 22 kts | 257° |
| 2026-04-28 17:22 | 15.38317 | 73.84505 | 197 ft | 26 kts | 258° |
| 2026-04-28 17:23 | 15.38239 | 73.84093 | 182 ft | 91 kts | 259° |
| 2026-04-28 17:23 | 15.38168 | 73.83722 | 169 ft | 119 kts | 257° |
| 2026-04-28 17:23 | 15.38006 | 73.83104 | 407 ft | 126 kts | 250° |
| 2026-04-28 17:23 | 15.37684 | 73.82269 | 1053 ft | 115 kts | 238° |
| 2026-04-28 17:24 | 15.37091 | 73.81533 | 934 ft | 163 kts | 226° |
| 2026-04-28 17:24 | 15.36271 | 73.80982 | 1539 ft | 149 kts | 212° |
| 2026-04-28 17:24 | 15.35576 | 73.79922 | 985 ft | 198 kts | 242° |
| 2026-04-28 17:24 | 15.34735 | 73.78814 | 1117 ft | 197 kts | 223° |
| 2026-04-28 17:25 | 15.33834 | 73.77847 | 1452 ft | 192 kts | 243° |
| 2026-04-28 17:25 | 15.32938 | 73.75153 | 2075 ft | 201 kts | 231° |
| 2026-04-28 17:25 | 15.31750 | 73.74456 | 2504 ft | 202 kts | 187° |
| 2026-04-28 17:26 | 15.30362 | 73.74645 | 2904 ft | 203 kts | 167° |
| 2026-04-28 17:26 | 15.28973 | 73.74965 | 3370 ft | 205 kts | 167° |
| 2026-04-28 17:26 | 15.27577 | 73.75287 | 3814 ft | 206 kts | 170° |
| 2026-04-28 17:26 | 15.26151 | 73.75500 | 4266 ft | 208 kts | 175° |
| 2026-04-28 17:27 | 15.24703 | 73.75563 | 4706 ft | 209 kts | 181° |
| 2026-04-28 17:27 | 15.23249 | 73.75479 | 5140 ft | 210 kts | 186° |
| 2026-04-28 17:27 | 15.21792 | 73.75302 | 5559 ft | 211 kts | 188° |
| 2026-04-28 17:27 | 15.20333 | 73.75097 | 5966 ft | 212 kts | 188° |
| 2026-04-28 17:28 | 15.18882 | 73.74898 | 6352 ft | 213 kts | 188° |
| 2026-04-28 17:28 | 15.15921 | 73.74495 | 7121 ft | 216 kts | 188° |
| 2026-04-28 17:28 | 15.14427 | 73.74299 | 7470 ft | 217 kts | 187° |
| 2026-04-28 17:29 | 15.12924 | 73.74110 | 7813 ft | 218 kts | 187° |
| 2026-04-28 17:29 | 15.11414 | 73.73920 | 8182 ft | 219 kts | 187° |
| 2026-04-28 17:29 | 15.09895 | 73.73731 | 8525 ft | 220 kts | 187° |
| 2026-04-28 17:30 | 15.06697 | 73.73334 | 8664 ft | 243 kts | 187° |
| 2026-04-28 17:30 | 15.03234 | 73.72907 | 8692 ft | 258 kts | 187° |
| 2026-04-28 17:30 | 15.01433 | 73.72684 | 8695 ft | 263 kts | 187° |
| 2026-04-28 17:31 | 14.99605 | 73.72457 | 8698 ft | 266 kts | 187° |
| 2026-04-28 17:31 | 14.95894 | 73.71998 | 8698 ft | 271 kts | 187° |
| 2026-04-28 17:32 | 14.92135 | 73.71534 | 8698 ft | 273 kts | 187° |
| 2026-04-28 17:32 | 14.90251 | 73.71299 | 8699 ft | 274 kts | 187° |
| 2026-04-28 17:32 | 14.88357 | 73.71067 | 8702 ft | 274 kts | 187° |
| 2026-04-28 17:32 | 14.86466 | 73.70831 | 8698 ft | 274 kts | 187° |
| 2026-04-28 17:33 | 14.84570 | 73.70599 | 8698 ft | 274 kts | 187° |
| 2026-04-28 17:33 | 14.82674 | 73.70363 | 8701 ft | 275 kts | 187° |
| 2026-04-28 17:33 | 14.80775 | 73.70130 | 8698 ft | 275 kts | 187° |
| 2026-04-28 17:33 | 14.80159 | 73.70054 | 8698 ft | 275 kts | 187° |
| 2026-04-28 17:34 | 14.76980 | 73.69659 | 8698 ft | 275 kts | 187° |
| 2026-04-28 17:34 | 14.75082 | 73.69426 | 8700 ft | 275 kts | 187° |
| 2026-04-28 17:34 | 14.73826 | 73.69270 | 8698 ft | 275 kts | 187° |
| 2026-04-28 17:34 | 14.71284 | 73.68960 | 8699 ft | 275 kts | 187° |
| 2026-04-28 17:35 | 14.69385 | 73.68726 | 8699 ft | 275 kts | 187° |
| 2026-04-28 17:35 | 14.68125 | 73.68569 | 8703 ft | 275 kts | 187° |
| 2026-04-28 17:35 | 14.66227 | 73.68333 | 8701 ft | 275 kts | 187° |
| 2026-04-28 17:35 | 14.63711 | 73.68024 | 8701 ft | 275 kts | 187° |
| 2026-04-28 17:36 | 14.61811 | 73.67790 | 8699 ft | 275 kts | 187° |
| 2026-04-28 17:36 | 14.59913 | 73.67554 | 8700 ft | 275 kts | 187° |
| 2026-04-28 17:36 | 14.58630 | 73.67395 | 8699 ft | 275 kts | 187° |
| 2026-04-28 17:36 | 14.56731 | 73.67161 | 8700 ft | 275 kts | 187° |
| 2026-04-28 17:37 | 14.54831 | 73.66929 | 8699 ft | 275 kts | 187° |
| 2026-04-28 17:37 | 14.52933 | 73.66695 | 8699 ft | 275 kts | 187° |
| 2026-04-28 17:37 | 14.51030 | 73.66459 | 8700 ft | 275 kts | 187° |
| 2026-04-28 17:37 | 14.49133 | 73.66224 | 8699 ft | 275 kts | 187° |
| 2026-04-28 17:38 | 14.47232 | 73.65992 | 8699 ft | 275 kts | 187° |
| 2026-04-28 17:38 | 14.45359 | 73.65762 | 8700 ft | 275 kts | 187° |
| 2026-04-28 17:38 | 14.43460 | 73.65526 | 8699 ft | 275 kts | 187° |
| 2026-04-28 17:38 | 14.41560 | 73.65291 | 8701 ft | 275 kts | 187° |
| 2026-04-28 17:39 | 14.39661 | 73.65060 | 8699 ft | 275 kts | 187° |
| 2026-04-28 17:39 | 14.37761 | 73.64828 | 8700 ft | 275 kts | 187° |
| 2026-04-28 17:39 | 14.33962 | 73.64359 | 8701 ft | 275 kts | 187° |
| 2026-04-28 17:40 | 14.32061 | 73.64123 | 8701 ft | 275 kts | 187° |
| 2026-04-28 17:40 | 14.30162 | 73.63890 | 8701 ft | 275 kts | 187° |
| 2026-04-28 17:40 | 14.28264 | 73.63657 | 8699 ft | 275 kts | 187° |
| 2026-04-28 17:40 | 14.26364 | 73.63423 | 8699 ft | 275 kts | 187° |
| 2026-04-28 17:41 | 14.24463 | 73.63190 | 8699 ft | 275 kts | 187° |
| 2026-04-28 17:41 | 14.22563 | 73.62956 | 8699 ft | 275 kts | 187° |
| 2026-04-28 17:41 | 14.20666 | 73.62722 | 8700 ft | 275 kts | 187° |
| 2026-04-28 17:41 | 14.18766 | 73.62489 | 8699 ft | 275 kts | 187° |
| 2026-04-28 17:42 | 14.16866 | 73.62255 | 8699 ft | 275 kts | 187° |
| 2026-04-28 17:42 | 14.14968 | 73.62022 | 8701 ft | 272 kts | 187° |
| 2026-04-28 17:42 | 14.13099 | 73.61795 | 8698 ft | 270 kts | 187° |
| 2026-04-28 17:42 | 14.11226 | 73.61569 | 8699 ft | 272 kts | 187° |
| 2026-04-28 17:43 | 14.09343 | 73.61340 | 8703 ft | 273 kts | 187° |
| 2026-04-28 17:43 | 14.07460 | 73.61109 | 8699 ft | 273 kts | 187° |
| 2026-04-28 17:43 | 14.05567 | 73.60875 | 8699 ft | 274 kts | 187° |
| 2026-04-28 17:43 | 14.03675 | 73.60642 | 8702 ft | 274 kts | 187° |
| 2026-04-28 17:44 | 14.01779 | 73.60407 | 8701 ft | 274 kts | 187° |
| 2026-04-28 17:44 | 13.99883 | 73.60174 | 8699 ft | 275 kts | 187° |
| 2026-04-28 17:44 | 13.97985 | 73.59940 | 8700 ft | 275 kts | 187° |
| 2026-04-28 17:44 | 13.96088 | 73.59707 | 8699 ft | 275 kts | 187° |
| 2026-04-28 17:45 | 13.94189 | 73.59474 | 8700 ft | 275 kts | 187° |
| 2026-04-28 17:45 | 13.92289 | 73.59241 | 8700 ft | 275 kts | 187° |
| 2026-04-28 17:45 | 13.90418 | 73.59012 | 8703 ft | 275 kts | 187° |
| 2026-04-28 17:45 | 13.88517 | 73.58779 | 8703 ft | 275 kts | 187° |
| 2026-04-28 17:46 | 13.86621 | 73.58548 | 8701 ft | 275 kts | 187° |
| 2026-04-28 17:46 | 13.84719 | 73.58315 | 8703 ft | 275 kts | 187° |
| 2026-04-28 17:46 | 13.82236 | 73.58011 | 8701 ft | 275 kts | 187° |
| 2026-04-28 17:46 | 13.75142 | 73.57143 | 8701 ft | 275 kts | 187° |
| 2026-04-28 17:47 | 13.67544 | 73.56213 | 8702 ft | 275 kts | 187° |
| 2026-04-28 17:47 | 13.59951 | 73.55286 | 8699 ft | 275 kts | 187° |
| 2026-04-28 17:47 | 13.52355 | 73.54358 | 8700 ft | 275 kts | 187° |
| 2026-04-28 17:47 | 13.47322 | 73.53744 | 8698 ft | 275 kts | 187° |
| 2026-04-28 17:48 | 13.37088 | 73.52497 | 7181 ft | 266 kts | 187° |
| 2026-04-28 17:48 | 13.29932 | 73.51624 | 5676 ft | 254 kts | 187° |
| 2026-04-28 17:48 | 13.23008 | 73.50784 | 4182 ft | 248 kts | 187° |
| 2026-04-28 17:48 | 13.16586 | 73.50041 | 3821 ft | 221 kts | 186° |
| 2026-04-28 17:49 | 13.10351 | 73.49294 | 3803 ft | 223 kts | 187° |
| 2026-04-28 17:49 | 13.04223 | 73.48547 | 3799 ft | 221 kts | 187° |
| 2026-04-28 17:49 | 12.98134 | 73.47805 | 3802 ft | 220 kts | 187° |
| 2026-04-28 17:49 | 12.92064 | 73.47069 | 3800 ft | 220 kts | 187° |
| 2026-04-28 17:50 | 12.85984 | 73.46329 | 3800 ft | 220 kts | 187° |
| 2026-04-28 17:50 | 12.79915 | 73.45594 | 3800 ft | 220 kts | 187° |
| 2026-04-28 17:50 | 12.73449 | 73.42454 | 3799 ft | 217 kts | 216° |
| 2026-04-28 17:50 | 12.63216 | 73.35748 | 3799 ft | 219 kts | 213° |
| 2026-04-28 17:51 | 12.52958 | 73.28982 | 3801 ft | 220 kts | 213° |
| 2026-04-28 17:51 | 12.42692 | 73.22241 | 3799 ft | 219 kts | 213° |
| 2026-04-28 17:51 | 12.32419 | 73.15488 | 3799 ft | 219 kts | 213° |
| 2026-04-28 17:51 | 12.22288 | 73.08848 | 3801 ft | 219 kts | 213° |
| 2026-04-28 17:52 | 12.12022 | 73.02111 | 3800 ft | 219 kts | 213° |
| 2026-04-28 17:52 | 12.01751 | 72.95391 | 3800 ft | 219 kts | 213° |
| 2026-04-28 17:52 | 11.90890 | 72.88282 | 3799 ft | 219 kts | 213° |
| 2026-04-28 17:53 | 11.89595 | 72.87438 | 3635 ft | 226 kts | 213° |
| 2026-04-28 17:53 | 11.88227 | 72.86542 | 3263 ft | 239 kts | 212° |
| 2026-04-28 17:53 | 11.86822 | 72.85622 | 2892 ft | 239 kts | 213° |
| 2026-04-28 17:53 | 11.84972 | 72.84411 | 2395 ft | 234 kts | 213° |
| 2026-04-28 17:54 | 11.80180 | 72.81285 | 2017 ft | 195 kts | 213° |
| 2026-04-28 17:54 | 11.77726 | 72.79681 | 1986 ft | 180 kts | 212° |
| 2026-04-28 17:54 | 11.75566 | 72.78268 | 1628 ft | 188 kts | 213° |
| 2026-04-28 17:54 | 11.73354 | 72.76825 | 1377 ft | 185 kts | 212° |
| 2026-04-28 17:55 | 11.71249 | 72.75450 | 1360 ft | 175 kts | 213° |
| 2026-04-28 17:55 | 11.63547 | 72.70421 | 1468 ft | 152 kts | 213° |
| 2026-04-28 17:55 | 11.59770 | 72.67958 | 1415 ft | 154 kts | 213° |
| 2026-04-28 17:55 | 11.56180 | 72.65618 | 1399 ft | 153 kts | 212° |
| 2026-04-28 17:56 | 11.52613 | 72.63291 | 1399 ft | 152 kts | 213° |
| 2026-04-28 17:56 | 11.49061 | 72.60979 | 1386 ft | 151 kts | 212° |
| 2026-04-28 17:56 | 11.45523 | 72.58673 | 1388 ft | 151 kts | 213° |
| 2026-04-28 17:56 | 11.41973 | 72.56363 | 1380 ft | 151 kts | 213° |
| 2026-04-28 17:57 | 11.38177 | 72.53891 | 1428 ft | 180 kts | 213° |
| 2026-04-28 17:57 | 11.33494 | 72.50839 | 1753 ft | 229 kts | 213° |
| 2026-04-28 17:57 | 11.28169 | 72.47377 | 1791 ft | 212 kts | 212° |
| 2026-04-28 17:57 | 11.23365 | 72.44255 | 1796 ft | 199 kts | 213° |
| 2026-04-28 17:58 | 11.21153 | 72.42818 | 1800 ft | 197 kts | 213° |
| 2026-04-28 17:58 | 11.19998 | 72.42066 | 1800 ft | 197 kts | 212° |
| 2026-04-28 17:58 | 11.18843 | 72.41314 | 1802 ft | 197 kts | 213° |
| 2026-04-28 17:58 | 11.17689 | 72.40566 | 1800 ft | 197 kts | 213° |
| 2026-04-28 17:59 | 11.16535 | 72.39816 | 1801 ft | 196 kts | 213° |
| 2026-04-28 17:59 | 11.12539 | 72.37219 | 1799 ft | 196 kts | 213° |
| 2026-04-28 17:59 | 11.07891 | 72.34199 | 1799 ft | 196 kts | 212° |
| 2026-04-28 17:59 | 11.05540 | 72.32675 | 1801 ft | 196 kts | 213° |
| 2026-04-28 18:00 | 11.04406 | 72.31939 | 1799 ft | 196 kts | 212° |
| 2026-04-28 18:00 | 11.03259 | 72.31193 | 1799 ft | 196 kts | 213° |
| 2026-04-28 18:00 | 11.02110 | 72.30449 | 1790 ft | 196 kts | 213° |
| 2026-04-28 18:00 | 11.00952 | 72.29697 | 1767 ft | 198 kts | 213° |
| 2026-04-28 18:01 | 10.99792 | 72.28943 | 1735 ft | 198 kts | 213° |
| 2026-04-28 18:01 | 10.98627 | 72.28189 | 1713 ft | 199 kts | 213° |
| 2026-04-28 18:01 | 10.97459 | 72.27430 | 1689 ft | 199 kts | 212° |
| 2026-04-28 18:01 | 10.96290 | 72.26670 | 1669 ft | 200 kts | 212° |
| 2026-04-28 18:02 | 10.95119 | 72.25913 | 1640 ft | 200 kts | 213° |
| 2026-04-28 18:02 | 10.93946 | 72.25151 | 1616 ft | 200 kts | 212° |
| 2026-04-28 18:02 | 10.92774 | 72.24390 | 1588 ft | 200 kts | 213° |
| 2026-04-28 18:02 | 10.91628 | 72.23605 | 1551 ft | 198 kts | 213° |
| 2026-04-28 18:03 | 10.90505 | 72.22955 | 1387 ft | 170 kts | 207° |
| 2026-04-28 18:03 | 10.89521 | 72.22436 | 1112 ft | 154 kts | 208° |
| 2026-04-28 18:03 | 10.88686 | 72.21993 | 1208 ft | 121 kts | 206° |
| 2026-04-28 18:03 | 10.87992 | 72.21638 | 1141 ft | 101 kts | 212° |
| 2026-04-28 18:04 | 10.87425 | 72.21252 | 956 ft | 101 kts | 214° |
| 2026-04-28 18:04 | 10.86830 | 72.20855 | 927 ft | 97 kts | 213° |
| 2026-04-28 18:04 | 10.86252 | 72.20501 | 882 ft | 96 kts | 211° |
| 2026-04-28 18:04 | 10.85681 | 72.20123 | 834 ft | 100 kts | 217° |
| 2026-04-28 18:05 | 10.85139 | 72.19683 | 800 ft | 103 kts | 221° |
| 2026-04-28 18:05 | 10.84773 | 72.19354 | 718 ft | 110 kts | 221° |
| 2026-04-28 18:05 | 10.83916 | 72.18662 | 376 ft | 125 kts | 214° |
| 2026-04-28 18:05 | 10.83196 | 72.18158 | 195 ft | 126 kts | 216° |
| 2026-04-28 18:06 | 10.82478 | 72.17639 | 28 ft | 124 kts | 216° |
| 2026-04-28 18:06 | 10.81798 | 72.17180 | 330 ft | 117 kts | 211° |
| 2026-04-28 18:06 | 10.81114 | 72.16750 | 832 ft | 118 kts | 216° |
| 2026-04-28 18:06 | 10.80593 | 72.15993 | 981 ft | 146 kts | 250° |
| 2026-04-28 18:07 | 10.80587 | 72.14910 | 1035 ft | 162 kts | 291° |
| 2026-04-28 18:07 | 10.81298 | 72.14123 | 1180 ft | 140 kts | 319° |
| 2026-04-28 18:07 | 10.81903 | 72.13435 | 1360 ft | 127 kts | 294° |
| 2026-04-28 18:07 | 10.82028 | 72.12654 | 1583 ft | 102 kts | 261° |
| 2026-04-28 18:08 | 10.81554 | 72.12201 | 1884 ft | 101 kts | 179° |
| 2026-04-28 18:08 | 10.80855 | 72.12488 | 1856 ft | 138 kts | 153° |
| 2026-04-28 18:08 | 10.79950 | 72.13087 | 1643 ft | 142 kts | 139° |
| 2026-04-28 18:08 | 10.79411 | 72.13822 | 1623 ft | 132 kts | 116° |
| 2026-04-28 18:09 | 10.79222 | 72.14810 | 1223 ft | 141 kts | 89° |
| 2026-04-28 18:09 | 10.79521 | 72.15600 | 1034 ft | 121 kts | 43° |
| 2026-04-28 18:09 | 10.80263 | 72.16032 | 632 ft | 122 kts | 29° |
| 2026-04-28 18:09 | 10.80962 | 72.16534 | 294 ft | 118 kts | 37° |
| 2026-04-28 18:10 | 10.81605 | 72.17001 | 85 ft | 107 kts | 35° |
| 2026-04-28 18:10 | 10.82115 | 72.17374 | 24 ft | 50 kts | 36° |
| 2026-04-28 18:10 | 10.82298 | 72.17507 | 23 ft | 36 kts | 35° |
| 2026-04-28 18:10 | 10.82477 | 72.17636 | 22 ft | 28 kts | 35° |
| 2026-04-28 18:11 | 10.82621 | 72.17740 | 19 ft | 23 kts | 34° |
| 2026-04-28 18:11 | 10.82711 | 72.17804 | 18 ft | 14 kts | 35° |
| 2026-04-28 18:11 | 10.82767 | 72.17842 | 18 ft | 9 kts | 28° |
| 2026-04-28 18:11 | 10.82827 | 72.17866 | 16 ft | 7 kts | 45° |
| 2026-04-28 18:12 | 10.82825 | 72.17887 | 17 ft | 1 kts | 130° |
| 2026-04-28 18:12 | 10.82820 | 72.17889 | 16 ft | 0 kts | 161° |
| 2026-04-28 18:12 | 10.82817 | 72.17889 | 16 ft | 0 kts | 175° |
| 2026-04-28 18:12 | 10.81182 | 72.16696 | 211 ft | 116 kts | 34° |
| 2026-04-28 18:13 | 10.81796 | 72.17142 | 44 ft | 102 kts | 36° |
| 2026-04-28 18:13 | 10.82178 | 72.17420 | 24 ft | 24 kts | 36° |